Aérodrome :
LOGIN :

S'inscrire | Disclaimer

   EN    FR    IT 

 










Légende :    VFR   VFR Marginal   IFR   IFR Intensif   IFR Très Intensif
Visi : 
Plafond : 
>= 8 km
>= 3000ft
5 à 8 km
1000 à 3000 ft
1500m à 5 km
500 à 1000 ft
800 à 1500m
200 à 500 ft
< 800m
< 200 ft
Symboles :   Orages  Brouillard  Fortes neiges  Fortes précipitations  Vent > 20 kt
SIGMETs :   Divers  Orages  Givrage  Turbulence  Onde Orograph.  Cendres Volcan.






- Altitude de l'aérodrome : 16 ft
- Code IATA : EAS


LESO - San Sebastian Fuenterrabia

DERNIER METAR :
  • 272130Z AUTO VRB04KT 2500 -RA BR VV001 13/12 Q1022

METARs EXPIRÉS :
  • 272100Z AUTO VRB06G19KT 2700 -RA BR VV001 13/12 Q1022
  • 272030Z VRB05G18KT 7000 -RA SCT006 BKN010 13/12 Q1022
  • 272000Z VRB05KT 6000 -RA SCT006 BKN012 13/12 Q1022
  • 271930Z VRB06KT 5000 RA BKN010 13/12 Q1022
  • 271900Z 27006KT 170V330 6000 RA BKN010 13/12 Q1021

TAF AMD TAF LESO
Valide du 27 à 19h jusqu'au 28 à 18h UTC


271930Z 2719/2818 26008KT 6000 -RA BKN015 TX13/2812Z TN11/2806Z
TEMPO 2719/2721 26015G30KT
TEMPO 2719/2806 3000 RA BKN008
TEMPO 2719/2724 1400 RA BKN005



MET'MAP, la Météo Aéronautique d'un coup d'oeil ! - Copyright ORBIFLY Décembre 2007 - Disclaimer

ORBIFLY MET'MAP TEAM :

Programmation & Développement : Alexandra Zaïnal
Sur une idée originale de : Baudouin d'Aumeries
Assistance à la programmation : Marc-Olivier Méhu
Soutien technique & logistique : Manuel Goepfert

Contact : metmap@orbifly.com




SOURCES & CREDITS :

   NOAA